sensor_id;sensor_type;location;lat;lon;timestamp;P1;durP1;ratioP1;P2;durP2;ratioP2
11447;SDS011;43755;49.736;8.734;2022-09-30T00:00:39;6.30;;;3.05;;
11447;SDS011;43755;49.736;8.734;2022-09-30T00:02:40;3.25;;;2.83;;
11447;SDS011;43755;49.736;8.734;2022-09-30T00:04:42;3.10;;;2.80;;
11447;SDS011;43755;49.736;8.734;2022-09-30T00:06:43;3.33;;;3.03;;
11447;SDS011;43755;49.736;8.734;2022-09-30T00:08:45;3.45;;;2.80;;
11447;SDS011;43755;49.736;8.734;2022-09-30T00:10:48;3.90;;;3.30;;
11447;SDS011;43755;49.736;8.734;2022-09-30T00:12:58;2.88;;;2.65;;
11447;SDS011;43755;49.736;8.734;2022-09-30T00:15:00;3.30;;;3.00;;
11447;SDS011;43755;49.736;8.734;2022-09-30T00:17:02;6.15;;;2.80;;
11447;SDS011;43755;49.736;8.734;2022-09-30T00:19:03;8.75;;;3.17;;
11447;SDS011;43755;49.736;8.734;2022-09-30T00:21:05;4.35;;;2.50;;
11447;SDS011;43755;49.736;8.734;2022-09-30T00:23:07;3.95;;;2.80;;
11447;SDS011;43755;49.736;8.734;2022-09-30T00:25:08;3.05;;;2.60;;
11447;SDS011;43755;49.736;8.734;2022-09-30T00:27:11;3.78;;;2.65;;
11447;SDS011;43755;49.736;8.734;2022-09-30T00:29:17;5.03;;;2.85;;
11447;SDS011;43755;49.736;8.734;2022-09-30T00:31:19;2.90;;;2.70;;
11447;SDS011;43755;49.736;8.734;2022-09-30T00:33:21;3.08;;;2.65;;
11447;SDS011;43755;49.736;8.734;2022-09-30T00:35:23;3.00;;;2.78;;
11447;SDS011;43755;49.736;8.734;2022-09-30T00:37:24;3.65;;;2.63;;
11447;SDS011;43755;49.736;8.734;2022-09-30T00:39:26;2.60;;;2.40;;
11447;SDS011;43755;49.736;8.734;2022-09-30T00:41:28;3.00;;;2.80;;
11447;SDS011;43755;49.736;8.734;2022-09-30T00:43:39;2.63;;;2.50;;
11447;SDS011;43755;49.736;8.734;2022-09-30T00:45:43;4.65;;;2.70;;
11447;SDS011;43755;49.736;8.734;2022-09-30T00:47:50;2.50;;;2.30;;
11447;SDS011;43755;49.736;8.734;2022-09-30T00:49:54;2.60;;;2.30;;
11447;SDS011;43755;49.736;8.734;2022-09-30T00:51:59;4.60;;;2.50;;
11447;SDS011;43755;49.736;8.734;2022-09-30T00:54:01;2.65;;;2.15;;
11447;SDS011;43755;49.736;8.734;2022-09-30T00:56:08;2.53;;;2.20;;
11447;SDS011;43755;49.736;8.734;2022-09-30T00:58:13;2.10;;;2.00;;
11447;SDS011;43755;49.736;8.734;2022-09-30T01:00:20;2.72;;;2.17;;
11447;SDS011;43755;49.736;8.734;2022-09-30T01:02:22;2.92;;;2.20;;
11447;SDS011;43755;49.736;8.734;2022-09-30T01:04:24;2.92;;;2.30;;
11447;SDS011;43755;49.736;8.734;2022-09-30T01:06:27;2.67;;;2.15;;
11447;SDS011;43755;49.736;8.734;2022-09-30T01:08:29;2.67;;;2.10;;
11447;SDS011;43755;49.736;8.734;2022-09-30T01:10:33;4.35;;;2.25;;
11447;SDS011;43755;49.736;8.734;2022-09-30T01:12:35;3.88;;;2.15;;
11447;SDS011;43755;49.736;8.734;2022-09-30T01:14:36;2.67;;;2.47;;
11447;SDS011;43755;49.736;8.734;2022-09-30T01:16:43;2.60;;;2.00;;
11447;SDS011;43755;49.736;8.734;2022-09-30T01:18:58;3.10;;;2.13;;
11447;SDS011;43755;49.736;8.734;2022-09-30T01:21:21;3.67;;;2.00;;
11447;SDS011;43755;49.736;8.734;2022-09-30T01:26:36;2.53;;;2.25;;
11447;SDS011;43755;49.736;8.734;2022-09-30T01:29:06;3.90;;;1.92;;
11447;SDS011;43755;49.736;8.734;2022-09-30T01:31:28;4.10;;;2.00;;
11447;SDS011;43755;49.736;8.734;2022-09-30T01:33:44;2.58;;;1.83;;
11447;SDS011;43755;49.736;8.734;2022-09-30T01:35:55;2.45;;;2.10;;
11447;SDS011;43755;49.736;8.734;2022-09-30T01:38:08;4.30;;;2.05;;
11447;SDS011;43755;49.736;8.734;2022-09-30T01:40:15;3.08;;;2.20;;
11447;SDS011;43755;49.736;8.734;2022-09-30T01:42:24;2.38;;;2.17;;
11447;SDS011;43755;49.736;8.734;2022-09-30T01:44:34;3.30;;;2.30;;
11447;SDS011;43755;49.736;8.734;2022-09-30T01:46:46;2.25;;;2.05;;
11447;SDS011;43755;49.736;8.734;2022-09-30T01:48:56;2.40;;;2.20;;
11447;SDS011;43755;49.736;8.734;2022-09-30T01:51:06;2.53;;;2.25;;
11447;SDS011;43755;49.736;8.734;2022-09-30T01:53:14;2.92;;;2.03;;
11447;SDS011;43755;49.736;8.734;2022-09-30T01:55:21;2.88;;;2.28;;
11447;SDS011;43755;49.736;8.734;2022-09-30T01:57:27;2.10;;;2.00;;
11447;SDS011;43755;49.736;8.734;2022-09-30T01:59:33;2.95;;;2.08;;
11447;SDS011;43755;49.736;8.734;2022-09-30T02:01:40;2.60;;;1.88;;
11447;SDS011;43755;49.736;8.734;2022-09-30T02:03:48;3.35;;;2.20;;
11447;SDS011;43755;49.736;8.734;2022-09-30T02:05:56;2.35;;;2.20;;
11447;SDS011;43755;49.736;8.734;2022-09-30T02:08:03;2.92;;;2.20;;
11447;SDS011;43755;49.736;8.734;2022-09-30T02:10:09;2.17;;;1.90;;
11447;SDS011;43755;49.736;8.734;2022-09-30T02:12:17;2.72;;;2.10;;
11447;SDS011;43755;49.736;8.734;2022-09-30T02:14:22;2.20;;;2.00;;
11447;SDS011;43755;49.736;8.734;2022-09-30T02:16:31;2.50;;;2.08;;
11447;SDS011;43755;49.736;8.734;2022-09-30T02:18:39;2.80;;;1.90;;
11447;SDS011;43755;49.736;8.734;2022-09-30T02:20:46;2.20;;;1.90;;
11447;SDS011;43755;49.736;8.734;2022-09-30T02:22:51;4.32;;;2.08;;
11447;SDS011;43755;49.736;8.734;2022-09-30T02:25:00;2.00;;;1.90;;
11447;SDS011;43755;49.736;8.734;2022-09-30T02:27:06;2.83;;;2.10;;
11447;SDS011;43755;49.736;8.734;2022-09-30T02:29:12;2.40;;;2.20;;
11447;SDS011;43755;49.736;8.734;2022-09-30T02:31:17;2.17;;;1.98;;
11447;SDS011;43755;49.736;8.734;2022-09-30T02:33:22;3.10;;;1.98;;
11447;SDS011;43755;49.736;8.734;2022-09-30T02:35:30;1.85;;;1.75;;
11447;SDS011;43755;49.736;8.734;2022-09-30T02:37:36;2.42;;;1.98;;
11447;SDS011;43755;49.736;8.734;2022-09-30T02:39:42;1.90;;;1.75;;
11447;SDS011;43755;49.736;8.734;2022-09-30T02:41:50;3.05;;;1.92;;
11447;SDS011;43755;49.736;8.734;2022-09-30T02:43:54;3.67;;;1.83;;
11447;SDS011;43755;49.736;8.734;2022-09-30T02:45:58;2.50;;;2.00;;
11447;SDS011;43755;49.736;8.734;2022-09-30T02:48:10;2.15;;;1.95;;
11447;SDS011;43755;49.736;8.734;2022-09-30T02:50:21;2.70;;;1.92;;
11447;SDS011;43755;49.736;8.734;2022-09-30T02:52:35;2.80;;;2.08;;
11447;SDS011;43755;49.736;8.734;2022-09-30T02:54:53;2.22;;;1.80;;
11447;SDS011;43755;49.736;8.734;2022-09-30T02:57:05;2.63;;;1.77;;
11447;SDS011;43755;49.736;8.734;2022-09-30T02:59:16;2.75;;;2.10;;
11447;SDS011;43755;49.736;8.734;2022-09-30T03:01:18;2.53;;;2.10;;
11447;SDS011;43755;49.736;8.734;2022-09-30T03:03:20;2.20;;;2.00;;
11447;SDS011;43755;49.736;8.734;2022-09-30T03:05:27;1.98;;;1.88;;
11447;SDS011;43755;49.736;8.734;2022-09-30T03:07:29;2.55;;;1.80;;
11447;SDS011;43755;49.736;8.734;2022-09-30T03:09:32;2.00;;;1.90;;
11447;SDS011;43755;49.736;8.734;2022-09-30T03:11:34;1.92;;;1.83;;
11447;SDS011;43755;49.736;8.734;2022-09-30T03:16:05;2.70;;;2.00;;
11447;SDS011;43755;49.736;8.734;2022-09-30T03:18:26;2.28;;;2.08;;
11447;SDS011;43755;49.736;8.734;2022-09-30T03:20:44;2.30;;;1.83;;
11447;SDS011;43755;49.736;8.734;2022-09-30T03:22:54;4.50;;;2.00;;
11447;SDS011;43755;49.736;8.734;2022-09-30T03:25:16;2.92;;;1.95;;
11447;SDS011;43755;49.736;8.734;2022-09-30T03:27:28;2.88;;;2.13;;
11447;SDS011;43755;49.736;8.734;2022-09-30T03:29:37;2.20;;;2.08;;
11447;SDS011;43755;49.736;8.734;2022-09-30T03:31:49;4.60;;;2.25;;
11447;SDS011;43755;49.736;8.734;2022-09-30T03:33:58;2.72;;;2.50;;
11447;SDS011;43755;49.736;8.734;2022-09-30T03:36:08;3.70;;;2.65;;
11447;SDS011;43755;49.736;8.734;2022-09-30T03:38:18;2.67;;;2.25;;
11447;SDS011;43755;49.736;8.734;2022-09-30T03:40:32;2.40;;;2.10;;
11447;SDS011;43755;49.736;8.734;2022-09-30T03:42:39;3.35;;;2.38;;
11447;SDS011;43755;49.736;8.734;2022-09-30T03:44:47;3.40;;;2.33;;
11447;SDS011;43755;49.736;8.734;2022-09-30T03:46:56;2.45;;;2.30;;
11447;SDS011;43755;49.736;8.734;2022-09-30T03:49:01;2.13;;;2.00;;
11447;SDS011;43755;49.736;8.734;2022-09-30T03:51:05;3.58;;;2.20;;
11447;SDS011;43755;49.736;8.734;2022-09-30T03:53:08;3.38;;;2.00;;
11447;SDS011;43755;49.736;8.734;2022-09-30T03:55:11;4.90;;;2.10;;
11447;SDS011;43755;49.736;8.734;2022-09-30T03:57:14;1.85;;;1.75;;
11447;SDS011;43755;49.736;8.734;2022-09-30T03:59:18;2.53;;;2.05;;
11447;SDS011;43755;49.736;8.734;2022-09-30T04:01:24;3.58;;;2.45;;
11447;SDS011;43755;49.736;8.734;2022-09-30T04:03:25;2.17;;;2.05;;
11447;SDS011;43755;49.736;8.734;2022-09-30T04:05:27;2.33;;;2.20;;
11447;SDS011;43755;49.736;8.734;2022-09-30T04:07:28;4.15;;;2.22;;
11447;SDS011;43755;49.736;8.734;2022-09-30T04:09:30;2.25;;;2.05;;
11447;SDS011;43755;49.736;8.734;2022-09-30T04:11:31;3.33;;;2.30;;
11447;SDS011;43755;49.736;8.734;2022-09-30T04:13:34;2.30;;;2.10;;
11447;SDS011;43755;49.736;8.734;2022-09-30T04:15:35;2.42;;;2.20;;
11447;SDS011;43755;49.736;8.734;2022-09-30T04:17:37;2.30;;;2.10;;
11447;SDS011;43755;49.736;8.734;2022-09-30T04:19:38;2.60;;;2.15;;
11447;SDS011;43755;49.736;8.734;2022-09-30T04:21:40;3.13;;;2.40;;
11447;SDS011;43755;49.736;8.734;2022-09-30T04:23:41;5.18;;;2.33;;
11447;SDS011;43755;49.736;8.734;2022-09-30T04:25:47;2.80;;;2.40;;
11447;SDS011;43755;49.736;8.734;2022-09-30T04:27:52;3.38;;;2.30;;
11447;SDS011;43755;49.736;8.734;2022-09-30T04:29:54;5.90;;;2.70;;
11447;SDS011;43755;49.736;8.734;2022-09-30T04:31:56;3.03;;;2.72;;
11447;SDS011;43755;49.736;8.734;2022-09-30T04:33:57;9.75;;;3.13;;
11447;SDS011;43755;49.736;8.734;2022-09-30T04:35:59;3.40;;;3.10;;
11447;SDS011;43755;49.736;8.734;2022-09-30T04:38:01;3.10;;;2.80;;
11447;SDS011;43755;49.736;8.734;2022-09-30T04:40:06;3.22;;;2.92;;
11447;SDS011;43755;49.736;8.734;2022-09-30T04:42:08;5.30;;;3.03;;
11447;SDS011;43755;49.736;8.734;2022-09-30T04:44:10;4.20;;;3.80;;
11447;SDS011;43755;49.736;8.734;2022-09-30T04:46:14;6.63;;;4.40;;
11447;SDS011;43755;49.736;8.734;2022-09-30T04:48:16;4.05;;;3.30;;
11447;SDS011;43755;49.736;8.734;2022-09-30T04:50:17;5.07;;;3.40;;
11447;SDS011;43755;49.736;8.734;2022-09-30T04:52:19;4.82;;;3.20;;
11447;SDS011;43755;49.736;8.734;2022-09-30T04:54:20;4.78;;;3.40;;
11447;SDS011;43755;49.736;8.734;2022-09-30T04:56:22;7.28;;;3.72;;
11447;SDS011;43755;49.736;8.734;2022-09-30T04:58:25;3.90;;;3.25;;
11447;SDS011;43755;49.736;8.734;2022-09-30T05:00:26;3.58;;;3.17;;
11447;SDS011;43755;49.736;8.734;2022-09-30T05:02:30;4.85;;;4.07;;
11447;SDS011;43755;49.736;8.734;2022-09-30T05:04:31;5.72;;;4.10;;
11447;SDS011;43755;49.736;8.734;2022-09-30T05:06:33;4.72;;;4.32;;
11447;SDS011;43755;49.736;8.734;2022-09-30T05:08:34;4.85;;;4.30;;
11447;SDS011;43755;49.736;8.734;2022-09-30T05:10:36;9.40;;;4.57;;
11447;SDS011;43755;49.736;8.734;2022-09-30T05:12:39;6.15;;;4.80;;
11447;SDS011;43755;49.736;8.734;2022-09-30T05:14:40;5.50;;;4.13;;
11447;SDS011;43755;49.736;8.734;2022-09-30T05:16:42;6.38;;;3.88;;
11447;SDS011;43755;49.736;8.734;2022-09-30T05:18:45;5.25;;;3.53;;
11447;SDS011;43755;49.736;8.734;2022-09-30T05:20:47;3.92;;;3.50;;
11447;SDS011;43755;49.736;8.734;2022-09-30T05:22:52;3.88;;;3.08;;
11447;SDS011;43755;49.736;8.734;2022-09-30T05:24:54;7.53;;;4.95;;
11447;SDS011;43755;49.736;8.734;2022-09-30T05:26:56;4.30;;;3.90;;
11447;SDS011;43755;49.736;8.734;2022-09-30T05:28:57;4.10;;;3.80;;
11447;SDS011;43755;49.736;8.734;2022-09-30T05:30:59;4.25;;;3.10;;
11447;SDS011;43755;49.736;8.734;2022-09-30T05:33:01;10.63;;;4.82;;
11447;SDS011;43755;49.736;8.734;2022-09-30T05:35:04;7.07;;;4.78;;
11447;SDS011;43755;49.736;8.734;2022-09-30T05:37:06;4.15;;;3.85;;
11447;SDS011;43755;49.736;8.734;2022-09-30T05:39:09;3.58;;;3.20;;
11447;SDS011;43755;49.736;8.734;2022-09-30T05:41:11;4.35;;;3.50;;
11447;SDS011;43755;49.736;8.734;2022-09-30T05:43:13;5.75;;;4.25;;
11447;SDS011;43755;49.736;8.734;2022-09-30T05:45:15;4.78;;;4.18;;
11447;SDS011;43755;49.736;8.734;2022-09-30T05:47:17;7.60;;;5.03;;
11447;SDS011;43755;49.736;8.734;2022-09-30T05:49:18;6.65;;;5.47;;
11447;SDS011;43755;49.736;8.734;2022-09-30T05:51:22;6.68;;;6.00;;
11447;SDS011;43755;49.736;8.734;2022-09-30T05:53:24;11.50;;;7.50;;
11447;SDS011;43755;49.736;8.734;2022-09-30T05:55:25;10.13;;;7.80;;
11447;SDS011;43755;49.736;8.734;2022-09-30T05:57:27;7.93;;;6.95;;
11447;SDS011;43755;49.736;8.734;2022-09-30T05:59:28;7.20;;;6.47;;
11447;SDS011;43755;49.736;8.734;2022-09-30T06:01:29;7.57;;;6.25;;
11447;SDS011;43755;49.736;8.734;2022-09-30T06:03:31;8.57;;;4.90;;
11447;SDS011;43755;49.736;8.734;2022-09-30T06:05:33;7.28;;;5.93;;
11447;SDS011;43755;49.736;8.734;2022-09-30T06:07:36;6.03;;;4.80;;
11447;SDS011;43755;49.736;8.734;2022-09-30T06:09:38;5.00;;;4.15;;
11447;SDS011;43755;49.736;8.734;2022-09-30T06:11:40;7.38;;;4.20;;
11447;SDS011;43755;49.736;8.734;2022-09-30T06:13:42;5.57;;;4.28;;
11447;SDS011;43755;49.736;8.734;2022-09-30T06:15:53;6.35;;;4.88;;
11447;SDS011;43755;49.736;8.734;2022-09-30T06:17:55;5.32;;;4.80;;
11447;SDS011;43755;49.736;8.734;2022-09-30T06:19:57;5.57;;;4.35;;
11447;SDS011;43755;49.736;8.734;2022-09-30T06:22:00;8.32;;;5.68;;
11447;SDS011;43755;49.736;8.734;2022-09-30T06:24:03;8.55;;;7.38;;
11447;SDS011;43755;49.736;8.734;2022-09-30T06:26:06;11.02;;;9.30;;
11447;SDS011;43755;49.736;8.734;2022-09-30T06:28:08;11.32;;;7.50;;
11447;SDS011;43755;49.736;8.734;2022-09-30T06:30:09;7.38;;;6.05;;
11447;SDS011;43755;49.736;8.734;2022-09-30T06:32:11;5.22;;;4.72;;
11447;SDS011;43755;49.736;8.734;2022-09-30T06:34:13;6.80;;;3.92;;
11447;SDS011;43755;49.736;8.734;2022-09-30T06:36:14;7.05;;;4.50;;
11447;SDS011;43755;49.736;8.734;2022-09-30T06:38:16;7.03;;;4.60;;
11447;SDS011;43755;49.736;8.734;2022-09-30T06:40:19;5.50;;;4.07;;
11447;SDS011;43755;49.736;8.734;2022-09-30T06:42:21;5.80;;;4.15;;
11447;SDS011;43755;49.736;8.734;2022-09-30T06:44:23;10.48;;;7.22;;
11447;SDS011;43755;49.736;8.734;2022-09-30T06:46:25;8.90;;;6.40;;
11447;SDS011;43755;49.736;8.734;2022-09-30T06:48:26;9.90;;;7.18;;
11447;SDS011;43755;49.736;8.734;2022-09-30T06:50:29;9.82;;;5.68;;
11447;SDS011;43755;49.736;8.734;2022-09-30T06:52:31;7.68;;;5.40;;
11447;SDS011;43755;49.736;8.734;2022-09-30T06:54:32;5.30;;;4.80;;
11447;SDS011;43755;49.736;8.734;2022-09-30T06:56:35;7.68;;;4.75;;
11447;SDS011;43755;49.736;8.734;2022-09-30T06:58:37;5.82;;;4.53;;
11447;SDS011;43755;49.736;8.734;2022-09-30T07:00:40;9.07;;;5.05;;
11447;SDS011;43755;49.736;8.734;2022-09-30T07:02:41;10.65;;;6.18;;
11447;SDS011;43755;49.736;8.734;2022-09-30T07:04:43;8.38;;;6.38;;
11447;SDS011;43755;49.736;8.734;2022-09-30T07:06:44;7.80;;;6.55;;
11447;SDS011;43755;49.736;8.734;2022-09-30T07:08:46;15.90;;;6.60;;
11447;SDS011;43755;49.736;8.734;2022-09-30T07:10:47;7.70;;;5.60;;
11447;SDS011;43755;49.736;8.734;2022-09-30T07:12:50;9.27;;;7.85;;
11447;SDS011;43755;49.736;8.734;2022-09-30T07:14:52;10.65;;;6.25;;
11447;SDS011;43755;49.736;8.734;2022-09-30T07:16:53;6.75;;;5.78;;
11447;SDS011;43755;49.736;8.734;2022-09-30T07:18:55;6.47;;;5.25;;
11447;SDS011;43755;49.736;8.734;2022-09-30T07:20:57;6.28;;;5.68;;
11447;SDS011;43755;49.736;8.734;2022-09-30T07:22:58;8.43;;;6.10;;
11447;SDS011;43755;49.736;8.734;2022-09-30T07:25:01;6.90;;;5.60;;
11447;SDS011;43755;49.736;8.734;2022-09-30T07:27:03;8.30;;;5.78;;
11447;SDS011;43755;49.736;8.734;2022-09-30T07:29:06;7.53;;;5.40;;
11447;SDS011;43755;49.736;8.734;2022-09-30T07:31:08;9.30;;;5.28;;
11447;SDS011;43755;49.736;8.734;2022-09-30T07:33:11;6.32;;;4.72;;
11447;SDS011;43755;49.736;8.734;2022-09-30T07:35:15;5.80;;;4.50;;
11447;SDS011;43755;49.736;8.734;2022-09-30T07:37:18;5.68;;;4.43;;
11447;SDS011;43755;49.736;8.734;2022-09-30T07:39:20;5.93;;;4.50;;
11447;SDS011;43755;49.736;8.734;2022-09-30T07:41:23;4.90;;;4.40;;
11447;SDS011;43755;49.736;8.734;2022-09-30T07:43:29;5.95;;;4.60;;
11447;SDS011;43755;49.736;8.734;2022-09-30T07:45:38;5.55;;;3.75;;
11447;SDS011;43755;49.736;8.734;2022-09-30T07:47:40;4.32;;;3.72;;
11447;SDS011;43755;49.736;8.734;2022-09-30T07:49:41;4.00;;;3.70;;
11447;SDS011;43755;49.736;8.734;2022-09-30T07:51:43;4.82;;;3.83;;
11447;SDS011;43755;49.736;8.734;2022-09-30T07:53:46;5.55;;;3.65;;
11447;SDS011;43755;49.736;8.734;2022-09-30T07:55:49;4.65;;;3.60;;
11447;SDS011;43755;49.736;8.734;2022-09-30T07:57:50;4.50;;;3.35;;
11447;SDS011;43755;49.736;8.734;2022-09-30T07:59:51;4.93;;;3.22;;
11447;SDS011;43755;49.736;8.734;2022-09-30T08:01:54;3.22;;;3.03;;
11447;SDS011;43755;49.736;8.734;2022-09-30T08:03:57;8.70;;;3.30;;
11447;SDS011;43755;49.736;8.734;2022-09-30T08:06:03;3.80;;;3.20;;
11447;SDS011;43755;49.736;8.734;2022-09-30T08:08:06;4.68;;;3.28;;
11447;SDS011;43755;49.736;8.734;2022-09-30T08:10:08;3.47;;;3.17;;
11447;SDS011;43755;49.736;8.734;2022-09-30T08:12:09;4.63;;;2.80;;
11447;SDS011;43755;49.736;8.734;2022-09-30T08:14:12;4.35;;;3.35;;
11447;SDS011;43755;49.736;8.734;2022-09-30T08:16:14;4.13;;;3.60;;
11447;SDS011;43755;49.736;8.734;2022-09-30T08:18:17;6.25;;;3.67;;
11447;SDS011;43755;49.736;8.734;2022-09-30T08:20:18;5.43;;;3.40;;
11447;SDS011;43755;49.736;8.734;2022-09-30T08:22:19;4.03;;;3.10;;
11447;SDS011;43755;49.736;8.734;2022-09-30T08:24:22;3.45;;;3.10;;
11447;SDS011;43755;49.736;8.734;2022-09-30T08:26:25;4.10;;;2.83;;
11447;SDS011;43755;49.736;8.734;2022-09-30T08:28:26;4.10;;;2.72;;
11447;SDS011;43755;49.736;8.734;2022-09-30T08:30:30;2.97;;;2.72;;
11447;SDS011;43755;49.736;8.734;2022-09-30T08:32:34;3.05;;;2.67;;
11447;SDS011;43755;49.736;8.734;2022-09-30T08:34:37;3.75;;;2.50;;
11447;SDS011;43755;49.736;8.734;2022-09-30T08:36:38;3.33;;;2.50;;
11447;SDS011;43755;49.736;8.734;2022-09-30T08:38:39;4.10;;;2.78;;
11447;SDS011;43755;49.736;8.734;2022-09-30T08:40:43;3.08;;;2.50;;
11447;SDS011;43755;49.736;8.734;2022-09-30T08:43:08;3.47;;;2.75;;
11447;SDS011;43755;49.736;8.734;2022-09-30T08:45:21;3.67;;;2.70;;
11447;SDS011;43755;49.736;8.734;2022-09-30T08:47:35;3.63;;;2.90;;
11447;SDS011;43755;49.736;8.734;2022-09-30T08:49:48;3.50;;;2.40;;
11447;SDS011;43755;49.736;8.734;2022-09-30T08:51:58;4.03;;;2.75;;
11447;SDS011;43755;49.736;8.734;2022-09-30T08:54:01;3.08;;;2.53;;
11447;SDS011;43755;49.736;8.734;2022-09-30T08:56:11;3.88;;;2.90;;
11447;SDS011;43755;49.736;8.734;2022-09-30T08:58:22;3.97;;;2.55;;
11447;SDS011;43755;49.736;8.734;2022-09-30T09:00:27;6.47;;;3.13;;
11447;SDS011;43755;49.736;8.734;2022-09-30T09:02:29;3.10;;;2.83;;
11447;SDS011;43755;49.736;8.734;2022-09-30T09:04:33;3.25;;;2.55;;
11447;SDS011;43755;49.736;8.734;2022-09-30T09:06:38;3.47;;;2.65;;
11447;SDS011;43755;49.736;8.734;2022-09-30T09:08:52;2.40;;;2.15;;
11447;SDS011;43755;49.736;8.734;2022-09-30T09:11:28;2.75;;;2.00;;
11447;SDS011;43755;49.736;8.734;2022-09-30T09:13:45;2.78;;;2.22;;
11447;SDS011;43755;49.736;8.734;2022-09-30T09:15:54;3.33;;;2.20;;
11447;SDS011;43755;49.736;8.734;2022-09-30T09:20:40;3.67;;;2.40;;
11447;SDS011;43755;49.736;8.734;2022-09-30T09:22:49;3.10;;;2.40;;
11447;SDS011;43755;49.736;8.734;2022-09-30T09:24:52;3.33;;;2.60;;
11447;SDS011;43755;49.736;8.734;2022-09-30T09:26:55;2.90;;;2.20;;
11447;SDS011;43755;49.736;8.734;2022-09-30T09:29:02;2.65;;;2.33;;
11447;SDS011;43755;49.736;8.734;2022-09-30T09:31:11;5.03;;;2.75;;
11447;SDS011;43755;49.736;8.734;2022-09-30T09:33:17;2.70;;;2.50;;
11447;SDS011;43755;49.736;8.734;2022-09-30T09:35:26;7.20;;;2.50;;
11447;SDS011;43755;49.736;8.734;2022-09-30T09:37:37;3.30;;;2.60;;
11447;SDS011;43755;49.736;8.734;2022-09-30T09:40:07;5.88;;;2.60;;
11447;SDS011;43755;49.736;8.734;2022-09-30T09:42:24;3.30;;;2.10;;
11447;SDS011;43755;49.736;8.734;2022-09-30T09:44:36;3.92;;;2.53;;
11447;SDS011;43755;49.736;8.734;2022-09-30T09:46:44;3.67;;;1.80;;
11447;SDS011;43755;49.736;8.734;2022-09-30T09:48:48;1.40;;;1.30;;
11447;SDS011;43755;49.736;8.734;2022-09-30T09:50:53;1.42;;;1.30;;
11447;SDS011;43755;49.736;8.734;2022-09-30T09:53:11;6.85;;;1.80;;
11447;SDS011;43755;49.736;8.734;2022-09-30T09:55:22;3.40;;;1.80;;
11447;SDS011;43755;49.736;8.734;2022-09-30T09:57:24;3.80;;;1.58;;
11447;SDS011;43755;49.736;8.734;2022-09-30T09:59:31;3.42;;;1.50;;
11447;SDS011;43755;49.736;8.734;2022-09-30T10:01:32;2.15;;;1.60;;
11447;SDS011;43755;49.736;8.734;2022-09-30T10:03:34;2.97;;;1.65;;
11447;SDS011;43755;49.736;8.734;2022-09-30T10:05:36;3.80;;;1.63;;
11447;SDS011;43755;49.736;8.734;2022-09-30T10:07:39;4.03;;;1.67;;
11447;SDS011;43755;49.736;8.734;2022-09-30T10:09:41;2.80;;;1.67;;
11447;SDS011;43755;49.736;8.734;2022-09-30T10:11:44;1.85;;;1.63;;
11447;SDS011;43755;49.736;8.734;2022-09-30T10:13:45;3.67;;;2.00;;
11447;SDS011;43755;49.736;8.734;2022-09-30T10:15:48;2.10;;;1.90;;
11447;SDS011;43755;49.736;8.734;2022-09-30T10:17:52;2.80;;;2.15;;
11447;SDS011;43755;49.736;8.734;2022-09-30T10:20:00;3.42;;;2.00;;
11447;SDS011;43755;49.736;8.734;2022-09-30T10:22:16;2.90;;;2.25;;
11447;SDS011;43755;49.736;8.734;2022-09-30T10:24:25;3.78;;;2.58;;
11447;SDS011;43755;49.736;8.734;2022-09-30T10:26:28;3.50;;;2.38;;
11447;SDS011;43755;49.736;8.734;2022-09-30T10:28:32;3.60;;;2.72;;
11447;SDS011;43755;49.736;8.734;2022-09-30T10:30:44;3.83;;;2.42;;
11447;SDS011;43755;49.736;8.734;2022-09-30T10:32:49;4.95;;;2.58;;
11447;SDS011;43755;49.736;8.734;2022-09-30T10:34:53;3.90;;;2.70;;
11447;SDS011;43755;49.736;8.734;2022-09-30T10:36:57;2.92;;;2.63;;
11447;SDS011;43755;49.736;8.734;2022-09-30T10:39:02;2.97;;;2.78;;
11447;SDS011;43755;49.736;8.734;2022-09-30T10:41:07;5.50;;;3.40;;
11447;SDS011;43755;49.736;8.734;2022-09-30T10:43:15;4.00;;;2.63;;
11447;SDS011;43755;49.736;8.734;2022-09-30T10:45:23;3.35;;;2.50;;
11447;SDS011;43755;49.736;8.734;2022-09-30T10:47:29;3.97;;;2.60;;
11447;SDS011;43755;49.736;8.734;2022-09-30T10:49:32;5.90;;;3.10;;
11447;SDS011;43755;49.736;8.734;2022-09-30T10:51:37;4.22;;;3.22;;
11447;SDS011;43755;49.736;8.734;2022-09-30T10:53:39;3.03;;;2.72;;
11447;SDS011;43755;49.736;8.734;2022-09-30T10:55:44;4.38;;;2.92;;
11447;SDS011;43755;49.736;8.734;2022-09-30T10:57:46;4.97;;;2.72;;
11447;SDS011;43755;49.736;8.734;2022-09-30T10:59:49;5.10;;;3.10;;
11447;SDS011;43755;49.736;8.734;2022-09-30T11:01:55;3.35;;;3.10;;
11447;SDS011;43755;49.736;8.734;2022-09-30T11:04:04;3.95;;;2.83;;
11447;SDS011;43755;49.736;8.734;2022-09-30T11:06:14;3.63;;;3.05;;
11447;SDS011;43755;49.736;8.734;2022-09-30T11:08:17;3.33;;;3.03;;
11447;SDS011;43755;49.736;8.734;2022-09-30T11:10:32;5.30;;;3.10;;
11447;SDS011;43755;49.736;8.734;2022-09-30T11:12:42;3.83;;;3.53;;
11447;SDS011;43755;49.736;8.734;2022-09-30T11:14:48;5.00;;;3.05;;
11447;SDS011;43755;49.736;8.734;2022-09-30T11:17:03;3.65;;;3.20;;
11447;SDS011;43755;49.736;8.734;2022-09-30T11:19:10;6.05;;;3.50;;
11447;SDS011;43755;49.736;8.734;2022-09-30T11:21:20;3.05;;;2.85;;
11447;SDS011;43755;49.736;8.734;2022-09-30T11:23:27;3.72;;;2.80;;
11447;SDS011;43755;49.736;8.734;2022-09-30T11:25:35;5.10;;;2.72;;
11447;SDS011;43755;49.736;8.734;2022-09-30T11:27:47;3.10;;;2.80;;
11447;SDS011;43755;49.736;8.734;2022-09-30T11:30:00;4.85;;;2.85;;
11447;SDS011;43755;49.736;8.734;2022-09-30T11:32:10;4.30;;;2.42;;
11447;SDS011;43755;49.736;8.734;2022-09-30T11:34:23;3.80;;;2.80;;
11447;SDS011;43755;49.736;8.734;2022-09-30T11:36:36;4.45;;;2.80;;
11447;SDS011;43755;49.736;8.734;2022-09-30T11:38:46;3.40;;;2.80;;
11447;SDS011;43755;49.736;8.734;2022-09-30T11:40:59;3.88;;;2.70;;
11447;SDS011;43755;49.736;8.734;2022-09-30T11:43:14;4.13;;;2.88;;
11447;SDS011;43755;49.736;8.734;2022-09-30T11:45:29;3.22;;;2.67;;
11447;SDS011;43755;49.736;8.734;2022-09-30T11:47:46;4.18;;;2.83;;
11447;SDS011;43755;49.736;8.734;2022-09-30T11:49:58;2.97;;;2.67;;
11447;SDS011;43755;49.736;8.734;2022-09-30T11:52:22;2.63;;;2.42;;
11447;SDS011;43755;49.736;8.734;2022-09-30T11:54:36;4.22;;;2.58;;
11447;SDS011;43755;49.736;8.734;2022-09-30T11:56:51;3.38;;;2.80;;
11447;SDS011;43755;49.736;8.734;2022-09-30T11:58:58;3.40;;;2.60;;
11447;SDS011;43755;49.736;8.734;2022-09-30T12:01:06;4.43;;;2.53;;
11447;SDS011;43755;49.736;8.734;2022-09-30T12:03:19;2.40;;;2.20;;
11447;SDS011;43755;49.736;8.734;2022-09-30T12:05:25;4.40;;;2.72;;
11447;SDS011;43755;49.736;8.734;2022-09-30T12:07:32;3.10;;;2.55;;
11447;SDS011;43755;49.736;8.734;2022-09-30T12:09:39;3.90;;;2.80;;
11447;SDS011;43755;49.736;8.734;2022-09-30T12:11:47;3.28;;;2.90;;
11447;SDS011;43755;49.736;8.734;2022-09-30T12:13:53;2.85;;;2.42;;
11447;SDS011;43755;49.736;8.734;2022-09-30T12:15:57;3.65;;;2.70;;
11447;SDS011;43755;49.736;8.734;2022-09-30T12:18:03;3.05;;;2.75;;
11447;SDS011;43755;49.736;8.734;2022-09-30T12:20:13;3.70;;;2.45;;
11447;SDS011;43755;49.736;8.734;2022-09-30T12:22:19;6.18;;;2.60;;
11447;SDS011;43755;49.736;8.734;2022-09-30T12:24:28;2.70;;;2.50;;
11447;SDS011;43755;49.736;8.734;2022-09-30T12:26:34;2.45;;;2.25;;
11447;SDS011;43755;49.736;8.734;2022-09-30T12:28:36;3.83;;;2.60;;
11447;SDS011;43755;49.736;8.734;2022-09-30T12:31:03;3.67;;;2.88;;
11447;SDS011;43755;49.736;8.734;2022-09-30T12:33:23;4.37;;;2.73;;
11447;SDS011;43755;49.736;8.734;2022-09-30T12:35:38;3.20;;;2.85;;
11447;SDS011;43755;49.736;8.734;2022-09-30T12:37:58;4.22;;;2.75;;
11447;SDS011;43755;49.736;8.734;2022-09-30T12:40:16;5.68;;;2.70;;
11447;SDS011;43755;49.736;8.734;2022-09-30T12:45:07;5.90;;;2.60;;
11447;SDS011;43755;49.736;8.734;2022-09-30T12:47:26;4.18;;;2.80;;
11447;SDS011;43755;49.736;8.734;2022-09-30T12:49:33;3.50;;;2.75;;